Time;durP1;ratioP1;P1;durP2;ratioP2;P2;SDS_P1;SDS_P2;PMS_P1;PMS_P2;Temp;Humidity;BMP_temperature;BMP_pressure;BME280_temperature;BME280_humidity;BME280_pressure;Samples;Min_cycle;Max_cycle;Signal;HPM_P1;HPM_P2
2020/12/27 00:00:18;;;;;;;4.72;2.83;;;4.90;91.30;;;;;;4990061;28;20434;-76
2020/12/27 00:02:44;;;;;;;3.58;2.78;;;4.90;91.10;;;;;;4977419;28;20030;-75
2020/12/27 00:05:09;;;;;;;4.13;2.63;;;4.90;91.20;;;;;;4956521;28;20027;-76
2020/12/27 00:07:36;;;;;;;4.25;2.55;;;4.90;91.30;;;;;;4978539;28;20504;-76
2020/12/27 00:10:06;;;;;;;3.65;2.70;;;4.90;91.30;;;;;;4972773;28;20022;-76
2020/12/27 00:12:32;;;;;;;4.40;3.22;;;4.90;91.30;;;;;;4989046;28;20027;-76
2020/12/27 00:14:58;;;;;;;4.47;2.85;;;5.00;91.10;;;;;;4974535;28;20042;-75
2020/12/27 00:17:24;;;;;;;3.63;2.53;;;4.90;91.40;;;;;;4977398;28;20397;-75
2020/12/27 00:19:49;;;;;;;4.07;2.72;;;4.90;91.30;;;;;;4978872;28;20049;-76
2020/12/27 00:22:16;;;;;;;3.13;2.30;;;5.00;91.00;;;;;;4974382;28;20037;-77
2020/12/27 00:24:42;;;;;;;3.78;2.83;;;5.00;91.00;;;;;;4979049;28;20026;-78
2020/12/27 00:27:07;;;;;;;4.32;2.90;;;5.00;91.10;;;;;;4995434;28;20743;-78
2020/12/27 00:29:33;;;;;;;3.35;2.53;;;5.00;91.10;;;;;;4975074;28;20670;-77
2020/12/27 00:31:58;;;;;;;3.85;2.55;;;4.90;91.30;;;;;;4978153;28;20022;-77
2020/12/27 00:34:25;;;;;;;4.15;2.47;;;4.90;91.60;;;;;;4984270;28;20033;-76
2020/12/27 00:36:56;;;;;;;5.38;2.85;;;4.90;92.10;;;;;;4978965;28;20127;-77
2020/12/27 00:39:21;;;;;;;4.82;2.30;;;5.00;92.30;;;;;;4974043;28;20026;-76
2020/12/27 00:41:48;;;;;;;3.90;2.63;;;4.90;92.50;;;;;;4993674;28;20161;-78
2020/12/27 00:44:14;;;;;;;4.85;2.92;;;4.80;92.70;;;;;;4975465;28;20065;-78
2020/12/27 00:46:40;;;;;;;3.08;2.58;;;4.90;92.70;;;;;;4976567;28;20600;-78
2020/12/27 00:49:06;;;;;;;3.88;2.70;;;4.80;92.80;;;;;;4976365;28;20034;-78
2020/12/27 00:51:32;;;;;;;4.88;2.58;;;4.80;92.60;;;;;;4981593;28;20022;-78
2020/12/27 00:53:58;;;;;;;4.03;2.80;;;4.80;92.70;;;;;;4975287;28;20038;-78
2020/12/27 00:56:24;;;;;;;6.53;2.80;;;4.80;92.40;;;;;;4978616;28;20646;-78
2020/12/27 00:58:50;;;;;;;3.72;2.47;;;4.90;92.50;;;;;;4962117;28;20049;-75
2020/12/27 01:01:16;;;;;;;3.97;2.75;;;4.80;92.60;;;;;;4991754;28;20026;-76
2020/12/27 01:03:44;;;;;;;3.83;2.92;;;4.80;92.50;;;;;;4972421;28;20034;-77
2020/12/27 01:06:10;;;;;;;3.90;2.45;;;4.80;92.60;;;;;;4972544;28;20026;-75
2020/12/27 01:08:36;;;;;;;5.35;2.78;;;4.90;92.50;;;;;;4989544;28;20096;-76
2020/12/27 01:11:03;;;;;;;4.65;2.53;;;4.90;92.70;;;;;;4971582;28;20470;-76
2020/12/27 01:13:29;;;;;;;4.03;2.38;;;4.90;92.70;;;;;;4987437;28;20034;-76
2020/12/27 01:15:55;;;;;;;4.25;2.85;;;4.90;92.90;;;;;;4957626;28;20035;-76
2020/12/27 01:18:21;;;;;;;3.80;2.50;;;4.80;92.80;;;;;;4988214;28;20449;-76
2020/12/27 01:20:47;;;;;;;5.07;2.70;;;4.90;92.80;;;;;;4967752;28;20033;-76
2020/12/27 01:23:12;;;;;;;3.15;2.60;;;4.90;93.00;;;;;;4970494;28;20030;-73
2020/12/27 01:25:38;;;;;;;3.58;2.67;;;4.80;93.10;;;;;;4965878;28;20030;-74
2020/12/27 01:28:04;;;;;;;3.20;2.28;;;4.80;93.20;;;;;;4973044;28;20033;-75
2020/12/27 01:30:29;;;;;;;3.75;2.80;;;4.80;93.30;;;;;;4949425;28;20037;-75
2020/12/27 01:32:55;;;;;;;3.65;2.78;;;4.80;93.30;;;;;;4969091;28;20029;-76
2020/12/27 01:35:21;;;;;;;3.80;2.95;;;4.80;93.50;;;;;;4963240;28;20029;-75
2020/12/27 01:37:47;;;;;;;4.22;3.03;;;4.80;93.60;;;;;;4989826;28;20060;-75
2020/12/27 01:40:12;;;;;;;5.75;3.03;;;4.70;93.60;;;;;;4962708;28;20026;-75
2020/12/27 01:42:38;;;;;;;4.80;3.00;;;4.70;93.70;;;;;;4979647;28;20045;-76
2020/12/27 01:45:05;;;;;;;4.50;2.97;;;4.70;93.50;;;;;;4977126;28;20041;-76
2020/12/27 01:47:35;;;;;;;5.15;3.33;;;4.60;93.60;;;;;;4954766;28;20026;-75
2020/12/27 01:50:02;;;;;;;6.45;4.00;;;4.60;93.30;;;;;;4987601;28;20034;-75
2020/12/27 01:52:28;;;;;;;5.05;3.35;;;4.60;93.50;;;;;;4991528;28;20173;-75
2020/12/27 01:54:54;;;;;;;7.45;3.17;;;4.60;93.40;;;;;;4996260;28;20125;-75
2020/12/27 01:57:21;;;;;;;10.50;3.28;;;4.50;93.20;;;;;;4979823;28;20030;-75
2020/12/27 01:59:47;;;;;;;5.82;2.95;;;4.50;93.30;;;;;;4996723;28;20034;-75
2020/12/27 02:02:14;;;;;;;7.63;3.47;;;4.50;93.10;;;;;;4963472;28;20164;-75
2020/12/27 02:04:40;;;;;;;7.10;3.80;;;4.50;93.00;;;;;;4961170;28;20030;-76
2020/12/27 02:07:11;;;;;;;5.47;3.47;;;4.40;93.10;;;;;;4984366;28;20027;-75
2020/12/27 02:09:38;;;;;;;7.68;3.38;;;4.40;93.00;;;;;;4962029;28;20628;-75
2020/12/27 02:12:07;;;;;;;4.85;3.33;;;4.40;93.00;;;;;;4982912;28;20018;-75
2020/12/27 02:14:33;;;;;;;5.25;2.83;;;4.40;93.00;;;;;;4968222;28;20027;-76
2020/12/27 02:16:59;;;;;;;5.75;3.30;;;4.40;92.70;;;;;;4971607;28;20030;-73
2020/12/27 02:19:24;;;;;;;4.13;2.90;;;4.30;92.90;;;;;;4983789;28;20121;-73
2020/12/27 02:21:50;;;;;;;5.90;3.00;;;4.30;92.80;;;;;;4975148;28;20135;-73
2020/12/27 02:24:16;;;;;;;4.80;2.67;;;4.30;92.60;;;;;;4962522;28;20038;-72
2020/12/27 02:27:14;;;;;;;2.92;2.42;;;4.30;92.50;;;;;;4972453;28;20034;-72
2020/12/27 02:29:40;;;;;;;3.42;2.38;;;4.30;92.40;;;;;;4934284;28;20046;-74
2020/12/27 02:32:06;;;;;;;5.78;3.13;;;4.30;92.30;;;;;;4996151;28;20030;-73
2020/12/27 02:34:32;;;;;;;4.15;2.40;;;4.30;92.50;;;;;;4960500;28;20486;-73
2020/12/27 02:36:58;;;;;;;4.28;2.85;;;4.30;92.40;;;;;;4986573;28;20478;-73
2020/12/27 02:39:23;;;;;;;5.30;2.40;;;4.30;92.30;;;;;;4994177;28;20026;-72
2020/12/27 02:41:50;;;;;;;2.83;2.10;;;4.30;92.10;;;;;;4961858;28;20042;-74
2020/12/27 02:44:17;;;;;;;3.85;2.30;;;4.20;92.30;;;;;;4994582;28;20038;-73
2020/12/27 02:46:42;;;;;;;5.28;2.47;;;4.30;92.40;;;;;;4961086;28;20109;-73
2020/12/27 02:49:09;;;;;;;4.55;2.92;;;4.30;92.10;;;;;;4959816;28;20224;-73
2020/12/27 02:51:34;;;;;;;3.65;2.50;;;4.30;92.00;;;;;;4975137;28;20025;-73
2020/12/27 02:54:00;;;;;;;3.45;1.95;;;4.40;91.90;;;;;;4996128;28;20030;-72
2020/12/27 02:56:27;;;;;;;4.55;2.13;;;4.40;91.70;;;;;;4992741;28;20434;-73
2020/12/27 02:58:55;;;;;;;2.65;1.83;;;4.40;91.50;;;;;;4977684;28;20022;-74
2020/12/27 03:01:21;;;;;;;3.53;2.20;;;4.50;91.60;;;;;;4987747;28;20050;-72
2020/12/27 03:03:47;;;;;;;2.72;2.10;;;4.40;91.50;;;;;;4993871;28;20062;-72
2020/12/27 03:06:12;;;;;;;4.10;2.45;;;4.40;91.40;;;;;;4975901;28;20497;-72
2020/12/27 03:08:39;;;;;;;1.95;1.73;;;4.50;91.10;;;;;;4975113;28;20026;-73
2020/12/27 03:11:05;;;;;;;3.72;2.05;;;4.50;91.20;;;;;;4981558;28;20427;-72
2020/12/27 03:13:34;;;;;;;2.30;1.80;;;4.50;91.20;;;;;;4965604;28;20030;-73
2020/12/27 03:16:04;;;;;;;3.30;1.75;;;4.40;91.10;;;;;;4971667;28;20445;-74
2020/12/27 03:18:31;;;;;;;3.10;1.75;;;4.40;91.00;;;;;;4974759;28;20026;-73
2020/12/27 03:20:57;;;;;;;2.65;1.77;;;4.50;90.90;;;;;;4974766;28;20081;-73
2020/12/27 03:23:23;;;;;;;2.85;1.83;;;4.50;90.50;;;;;;4991255;28;20449;-72
2020/12/27 03:25:49;;;;;;;2.80;1.80;;;4.60;90.70;;;;;;4951501;28;20026;-72
2020/12/27 03:28:15;;;;;;;3.50;1.70;;;4.50;90.40;;;;;;4969712;28;20089;-73
2020/12/27 03:30:42;;;;;;;5.18;1.80;;;4.60;90.30;;;;;;4973009;28;20045;-72
2020/12/27 03:33:08;;;;;;;3.40;1.60;;;4.60;90.10;;;;;;4991967;28;20037;-74
2020/12/27 03:35:33;;;;;;;2.78;1.92;;;4.60;90.20;;;;;;4980907;28;20026;-72
2020/12/27 03:37:59;;;;;;;3.92;1.50;;;4.60;90.20;;;;;;4991926;28;20041;-73
2020/12/27 03:40:25;;;;;;;3.38;1.73;;;4.60;89.70;;;;;;4981358;28;20069;-73
2020/12/27 03:42:50;;;;;;;3.70;1.58;;;4.50;90.00;;;;;;4952384;28;20026;-72
2020/12/27 03:45:16;;;;;;;2.15;1.60;;;4.60;89.10;;;;;;4987570;28;20027;-74
2020/12/27 03:47:42;;;;;;;4.95;1.40;;;4.60;88.90;;;;;;4990644;28;20034;-75
2020/12/27 03:50:08;;;;;;;2.28;1.48;;;4.60;89.00;;;;;;4992016;28;20097;-73
2020/12/27 03:52:34;;;;;;;2.63;1.55;;;4.60;89.20;;;;;;4969021;28;20077;-73
2020/12/27 03:54:59;;;;;;;2.85;1.42;;;4.60;88.30;;;;;;4981285;28;20117;-72
2020/12/27 03:57:25;;;;;;;2.10;1.48;;;4.60;88.50;;;;;;4972793;28;20030;-73
2020/12/27 03:59:54;;;;;;;4.10;1.75;;;4.60;88.10;;;;;;4980467;28;20112;-72
2020/12/27 04:02:20;;;;;;;2.72;1.77;;;4.70;87.90;;;;;;4978703;28;20026;-73
2020/12/27 04:04:45;;;;;;;2.95;1.60;;;4.60;87.40;;;;;;4968504;28;20036;-74
2020/12/27 04:07:11;;;;;;;3.35;1.60;;;4.60;86.70;;;;;;4974480;28;20033;-73
2020/12/27 04:09:37;;;;;;;3.25;1.60;;;4.60;87.10;;;;;;4970514;28;20033;-74
2020/12/27 04:12:02;;;;;;;2.45;1.30;;;4.60;87.50;;;;;;4964563;28;20031;-73
2020/12/27 04:14:28;;;;;;;2.90;1.58;;;4.60;87.30;;;;;;4973429;28;20042;-73
2020/12/27 04:16:54;;;;;;;3.25;1.70;;;4.60;87.00;;;;;;4990294;28;20116;-73
2020/12/27 04:19:20;;;;;;;5.30;1.40;;;4.60;86.90;;;;;;4972782;28;20027;-73
2020/12/27 04:21:46;;;;;;;3.35;1.58;;;4.60;85.80;;;;;;4967809;28;20054;-73
2020/12/27 04:24:12;;;;;;;3.08;1.90;;;4.60;85.90;;;;;;4965148;28;20113;-73
2020/12/27 04:26:38;;;;;;;2.88;1.50;;;4.50;87.40;;;;;;4974138;28;20054;-72
2020/12/27 04:29:04;;;;;;;3.90;1.75;;;4.50;86.30;;;;;;4977175;28;20018;-73
2020/12/27 04:31:30;;;;;;;4.28;1.90;;;4.60;87.00;;;;;;4967861;28;20423;-73
2020/12/27 04:33:57;;;;;;;2.90;1.75;;;4.50;87.60;;;;;;4954939;28;20088;-73
2020/12/27 04:36:23;;;;;;;3.65;1.90;;;4.50;85.80;;;;;;4963349;28;20058;-73
2020/12/27 04:38:50;;;;;;;3.78;2.13;;;4.60;85.50;;;;;;4973452;28;20030;-72
2020/12/27 04:41:16;;;;;;;3.95;1.88;;;4.50;85.50;;;;;;4991005;28;20107;-73
2020/12/27 04:43:44;;;;;;;3.78;1.55;;;4.50;85.20;;;;;;4972995;28;20041;-73
2020/12/27 04:46:11;;;;;;;2.85;1.48;;;4.50;84.50;;;;;;4971813;28;20022;-73
2020/12/27 04:48:42;;;;;;;3.13;1.50;;;4.60;84.10;;;;;;4972840;28;20030;-73
2020/12/27 04:51:09;;;;;;;3.92;1.88;;;4.50;85.00;;;;;;4984976;28;20030;-74
2020/12/27 04:53:36;;;;;;;6.28;2.05;;;4.50;84.80;;;;;;4973005;28;20026;-73
2020/12/27 04:56:03;;;;;;;5.65;1.65;;;4.50;85.20;;;;;;4980281;28;20496;-74
2020/12/27 04:58:29;;;;;;;4.18;1.80;;;4.60;85.10;;;;;;4980976;28;20117;-73
2020/12/27 05:01:02;;;;;;;4.05;1.98;;;4.50;84.70;;;;;;4965981;28;20036;-72
2020/12/27 05:03:28;;;;;;;3.05;2.08;;;4.50;84.90;;;;;;4970167;28;20038;-73
2020/12/27 05:05:55;;;;;;;2.72;1.75;;;4.60;84.50;;;;;;4987757;28;20038;-73
2020/12/27 05:08:21;;;;;;;3.17;1.70;;;4.60;84.20;;;;;;4952551;28;20027;-72
2020/12/27 05:10:47;;;;;;;3.97;1.75;;;4.50;83.40;;;;;;4968396;28;20482;-72
2020/12/27 05:13:15;;;;;;;3.40;1.90;;;4.60;84.20;;;;;;4990196;28;20030;-73
2020/12/27 05:15:41;;;;;;;4.05;2.22;;;4.50;83.10;;;;;;4951819;28;20034;-73
2020/12/27 05:18:08;;;;;;;3.10;1.80;;;4.60;83.50;;;;;;4971845;28;20109;-72
2020/12/27 05:20:35;;;;;;;4.68;2.30;;;4.50;82.40;;;;;;4978109;28;20038;-74
2020/12/27 05:23:04;;;;;;;5.50;1.67;;;4.50;83.30;;;;;;4989799;28;20057;-73
2020/12/27 05:25:31;;;;;;;3.17;1.88;;;4.50;83.40;;;;;;4987262;28;20030;-72
2020/12/27 05:28:04;;;;;;;3.88;2.20;;;4.50;83.40;;;;;;4987689;28;20389;-73
2020/12/27 05:30:29;;;;;;;3.70;2.58;;;4.40;83.40;;;;;;4964683;28;20025;-73
2020/12/27 05:32:56;;;;;;;4.15;2.13;;;4.40;82.90;;;;;;4972096;28;20473;-73
2020/12/27 05:35:22;;;;;;;4.63;2.30;;;4.50;82.80;;;;;;4980449;28;20479;-72
2020/12/27 05:37:49;;;;;;;3.30;2.20;;;4.40;83.90;;;;;;4971171;28;20117;-73
2020/12/27 05:40:15;;;;;;;5.38;2.25;;;4.40;83.20;;;;;;4978639;28;20034;-75
2020/12/27 05:42:42;;;;;;;3.63;2.40;;;4.40;83.40;;;;;;4987922;28;20034;-72
2020/12/27 05:45:16;;;;;;;4.90;2.33;;;4.40;82.50;;;;;;4962715;28;20030;-73
2020/12/27 05:47:43;;;;;;;3.05;2.15;;;4.40;83.20;;;;;;4980754;28;20022;-73
2020/12/27 05:50:12;;;;;;;4.80;2.47;;;4.30;83.50;;;;;;4980007;28;20046;-73
2020/12/27 05:52:47;;;;;;;6.00;1.83;;;4.30;83.00;;;;;;4989245;28;20037;-72
2020/12/27 05:55:18;;;;;;;3.70;1.98;;;4.30;83.10;;;;;;4988321;28;20482;-72
2020/12/27 05:57:51;;;;;;;3.33;2.35;;;4.30;82.50;;;;;;4986114;28;20041;-73
2020/12/27 06:00:24;;;;;;;2.78;2.10;;;4.30;83.10;;;;;;4983141;28;20121;-75
2020/12/27 06:02:58;;;;;;;3.70;2.20;;;4.30;83.00;;;;;;4971306;28;20113;-73
2020/12/27 06:05:54;;;;;;;5.55;2.30;;;4.30;82.70;;;;;;4965384;28;20059;-73
2020/12/27 06:08:28;;;;;;;4.28;1.73;;;4.30;83.00;;;;;;4988712;28;20046;-73
2020/12/27 06:11:37;;;;;;;3.33;1.95;;;4.30;82.70;;;;;;4971791;28;20053;-72
2020/12/27 06:14:15;;;;;;;4.63;2.13;;;4.20;83.10;;;;;;4929235;28;20077;-74
2020/12/27 06:16:46;;;;;;;6.35;2.17;;;4.20;83.30;;;;;;4987851;28;20525;-72
2020/12/27 06:19:24;;;;;;;3.22;2.38;;;4.20;83.00;;;;;;4971672;28;20090;-73
2020/12/27 06:22:09;;;;;;;2.78;2.00;;;4.30;83.10;;;;;;4967423;28;20033;-73
2020/12/27 06:24:37;;;;;;;4.28;1.90;;;4.20;82.70;;;;;;4972408;28;20520;-73
2020/12/27 06:27:05;;;;;;;3.60;2.05;;;4.20;83.20;;;;;;4970950;28;20088;-72
2020/12/27 06:29:43;;;;;;;3.00;2.10;;;4.30;82.50;;;;;;4976235;28;20053;-73
2020/12/27 06:32:11;;;;;;;3.10;1.90;;;4.30;82.10;;;;;;4967579;28;20113;-72
2020/12/27 06:34:36;;;;;;;2.65;1.77;;;4.30;82.20;;;;;;4971398;28;20026;-76
2020/12/27 06:37:06;;;;;;;3.95;1.83;;;4.30;82.30;;;;;;4954934;28;20035;-73
2020/12/27 06:39:32;;;;;;;3.35;1.92;;;4.30;82.00;;;;;;4974141;28;20036;-73
2020/12/27 06:42:04;;;;;;;3.92;1.90;;;4.30;81.60;;;;;;4975901;28;20410;-72
2020/12/27 06:44:59;;;;;;;4.22;1.70;;;4.40;81.80;;;;;;4968857;28;20505;-74
2020/12/27 06:47:48;;;;;;;4.57;1.80;;;4.30;82.50;;;;;;4948976;28;20092;-72
2020/12/27 06:50:18;;;;;;;4.18;1.80;;;4.30;83.20;;;;;;4972270;28;20035;-73
2020/12/27 06:52:44;;;;;;;3.13;1.92;;;4.30;82.60;;;;;;4982587;28;20432;-74
2020/12/27 06:55:10;;;;;;;4.25;1.95;;;4.30;82.30;;;;;;4983033;28;20165;-72
2020/12/27 06:57:48;;;;;;;4.25;1.70;;;4.40;82.20;;;;;;4957373;28;20037;-73
2020/12/27 07:00:23;;;;;;;4.82;1.65;;;4.30;81.60;;;;;;4975331;28;20422;-73
2020/12/27 07:03:10;;;;;;;2.55;1.48;;;4.40;81.50;;;;;;4983248;28;20375;-72
2020/12/27 07:05:40;;;;;;;2.60;1.80;;;4.40;81.70;;;;;;4990351;28;20037;-74
2020/12/27 07:08:09;;;;;;;5.00;1.40;;;4.40;81.70;;;;;;4981699;28;20026;-73
2020/12/27 07:10:44;;;;;;;4.10;1.85;;;4.50;81.60;;;;;;4992835;28;20448;-73
2020/12/27 07:13:14;;;;;;;3.13;1.60;;;4.50;81.10;;;;;;4968774;28;20030;-73
2020/12/27 07:15:51;;;;;;;1.93;1.40;;;4.50;80.70;;;;;;4991332;28;20037;-73
2020/12/27 07:18:24;;;;;;;2.28;1.55;;;4.50;80.80;;;;;;4990297;28;20491;-73
2020/12/27 07:20:57;;;;;;;2.53;1.55;;;4.50;81.40;;;;;;4991193;28;20030;-73
2020/12/27 07:23:24;;;;;;;2.60;1.90;;;4.50;81.30;;;;;;4957163;28;20501;-73
2020/12/27 07:25:53;;;;;;;3.00;1.58;;;4.50;80.70;;;;;;4974515;28;20475;-72
2020/12/27 07:28:20;;;;;;;2.15;1.42;;;4.50;80.60;;;;;;4970517;28;20038;-73
2020/12/27 07:30:47;;;;;;;3.67;1.73;;;4.50;79.60;;;;;;4992038;28;20026;-74
2020/12/27 07:33:15;;;;;;;5.72;1.90;;;4.50;80.40;;;;;;4976337;28;20113;-73
2020/12/27 07:35:41;;;;;;;2.65;1.40;;;4.50;81.00;;;;;;4990645;28;20114;-73
2020/12/27 07:38:07;;;;;;;4.38;1.80;;;4.50;80.60;;;;;;4991177;28;20503;-74
2020/12/27 07:40:37;;;;;;;3.45;1.73;;;4.40;80.80;;;;;;4980942;28;20030;-73
2020/12/27 07:43:10;;;;;;;2.00;1.58;;;4.40;80.90;;;;;;4972411;28;20175;-72
2020/12/27 07:45:36;;;;;;;3.15;1.30;;;4.40;81.10;;;;;;4984074;28;20073;-72
2020/12/27 07:48:02;;;;;;;4.22;1.70;;;4.40;80.90;;;;;;4974163;28;20026;-73
2020/12/27 07:50:31;;;;;;;1.80;1.33;;;4.50;80.70;;;;;;4968860;28;20523;-73
2020/12/27 07:52:59;;;;;;;2.70;1.20;;;4.40;81.10;;;;;;4981112;28;20110;-73
2020/12/27 07:55:34;;;;;;;5.28;1.52;;;4.50;80.20;;;;;;4972871;28;20023;-73
2020/12/27 07:58:07;;;;;;;5.50;1.75;;;4.50;80.40;;;;;;4988482;28;20026;-72
2020/12/27 08:00:39;;;;;;;2.88;1.50;;;4.50;79.90;;;;;;4972746;28;20061;-72
2020/12/27 08:03:09;;;;;;;2.45;1.35;;;4.50;80.30;;;;;;4977816;28;20049;-72
2020/12/27 08:05:35;;;;;;;3.05;1.77;;;4.40;80.90;;;;;;4961801;28;20018;-73
2020/12/27 08:08:06;;;;;;;2.38;1.50;;;4.40;80.60;;;;;;4978696;28;20033;-73
2020/12/27 08:10:33;;;;;;;2.35;1.30;;;4.40;81.20;;;;;;4969585;28;20043;-72
2020/12/27 08:13:00;;;;;;;2.88;1.70;;;4.40;80.60;;;;;;4988890;28;20034;-73
2020/12/27 08:15:28;;;;;;;3.05;1.60;;;4.50;80.80;;;;;;4990386;28;20446;-72
2020/12/27 08:17:56;;;;;;;2.15;1.65;;;4.40;80.50;;;;;;4974496;28;20030;-73
2020/12/27 08:20:23;;;;;;;3.58;1.77;;;4.40;81.00;;;;;;4952985;28;20241;-73
2020/12/27 08:23:06;;;;;;;3.55;1.48;;;4.40;80.50;;;;;;4971798;28;20030;-73
2020/12/27 08:25:33;;;;;;;2.38;1.65;;;4.40;80.90;;;;;;4971559;28;20034;-73
2020/12/27 08:28:04;;;;;;;3.33;1.50;;;4.40;82.10;;;;;;4973725;28;20026;-73
2020/12/27 08:30:30;;;;;;;2.77;1.60;;;4.40;81.10;;;;;;4964815;28;20053;-73
2020/12/27 08:33:11;;;;;;;2.38;1.60;;;4.40;81.20;;;;;;4970092;28;20301;-74
2020/12/27 08:35:39;;;;;;;2.50;1.35;;;4.40;80.90;;;;;;4972704;28;20621;-75
2020/12/27 08:38:34;;;;;;;3.10;1.50;;;4.40;81.10;;;;;;4975582;28;20672;-75
2020/12/27 08:41:09;;;;;;;4.32;1.52;;;4.40;81.80;;;;;;4990478;28;20085;-75
2020/12/27 08:43:56;;;;;;;2.28;1.45;;;4.40;81.70;;;;;;4971376;28;20185;-75
2020/12/27 08:46:26;;;;;;;2.20;1.52;;;4.40;81.90;;;;;;4975230;28;20034;-75
2020/12/27 08:49:01;;;;;;;3.45;1.50;;;4.40;82.00;;;;;;4981907;28;20026;-75
2020/12/27 08:51:36;;;;;;;2.50;1.30;;;4.40;82.00;;;;;;4989964;28;20493;-75
2020/12/27 08:54:06;;;;;;;2.50;1.52;;;4.40;81.30;;;;;;4958113;28;20433;-74
2020/12/27 08:56:34;;;;;;;3.65;1.80;;;4.50;81.50;;;;;;4977151;28;20593;-75
2020/12/27 08:58:59;;;;;;;1.85;1.20;;;4.50;81.40;;;;;;4959099;28;20113;-75
2020/12/27 09:01:26;;;;;;;3.28;1.65;;;4.50;81.90;;;;;;4973884;28;20105;-74
2020/12/27 09:03:52;;;;;;;2.85;1.50;;;4.50;81.30;;;;;;4956379;28;20037;-73
2020/12/27 09:06:18;;;;;;;2.38;1.63;;;4.50;82.20;;;;;;4979711;28;20050;-74
2020/12/27 09:08:47;;;;;;;2.35;1.38;;;4.50;82.90;;;;;;4974724;28;20042;-74
2020/12/27 09:11:13;;;;;;;3.03;1.60;;;4.50;82.90;;;;;;4974723;28;20037;-76
2020/12/27 09:13:40;;;;;;;3.28;1.70;;;4.50;83.40;;;;;;4978587;28;20030;-76
2020/12/27 09:16:07;;;;;;;2.92;1.33;;;4.60;83.60;;;;;;4981741;28;20477;-74
2020/12/27 09:18:34;;;;;;;2.33;1.42;;;4.50;84.00;;;;;;4992006;28;20037;-74
2020/12/27 09:21:09;;;;;;;4.00;1.85;;;4.50;84.50;;;;;;4995487;28;20030;-73
2020/12/27 09:23:35;;;;;;;3.90;1.70;;;4.50;84.20;;;;;;4989544;28;20044;-74
2020/12/27 09:26:10;;;;;;;2.55;1.60;;;4.60;83.60;;;;;;4991330;28;23668;-77
2020/12/27 09:28:37;;;;;;;2.30;1.75;;;4.50;84.30;;;;;;4992532;28;20505;-76
2020/12/27 09:31:07;;;;;;;8.10;1.50;;;4.60;84.20;;;;;;4991561;28;20050;-75
2020/12/27 09:33:36;;;;;;;2.83;1.20;;;4.60;83.80;;;;;;4992349;28;20476;-76
2020/12/27 09:36:05;;;;;;;2.63;1.48;;;4.50;83.70;;;;;;4960532;28;20019;-76
2020/12/27 09:38:42;;;;;;;1.90;1.30;;;4.60;83.60;;;;;;4974816;28;20121;-75
2020/12/27 09:41:14;;;;;;;3.65;1.70;;;4.60;83.60;;;;;;4977178;28;20029;-77
2020/12/27 09:43:58;;;;;;;4.10;1.83;;;4.60;83.40;;;;;;4994335;28;20034;-75
2020/12/27 09:46:55;;;;;;;2.30;1.45;;;4.60;83.20;;;;;;4993431;28;20046;-77
2020/12/27 09:49:32;;;;;;;2.92;1.33;;;4.70;82.90;;;;;;4973917;28;20045;-76
2020/12/27 09:52:11;;;;;;;1.83;1.10;;;4.70;82.80;;;;;;4979133;28;20030;-76
2020/12/27 09:54:38;;;;;;;1.77;1.38;;;4.70;82.80;;;;;;4970826;28;20080;-76
2020/12/27 09:57:14;;;;;;;1.95;1.30;;;4.70;82.60;;;;;;4989742;28;20081;-76
2020/12/27 09:59:41;;;;;;;3.78;1.63;;;4.80;82.10;;;;;;4990792;28;20041;-77
2020/12/27 10:02:07;;;;;;;4.50;1.58;;;4.80;82.20;;;;;;4990748;28;20045;-77
2020/12/27 10:04:33;;;;;;;3.05;1.67;;;4.80;82.10;;;;;;4992496;28;20109;-75
2020/12/27 10:06:59;;;;;;;2.20;1.10;;;4.80;82.20;;;;;;4983536;28;20047;-77
2020/12/27 10:09:25;;;;;;;2.90;1.23;;;4.90;81.50;;;;;;4989129;28;20446;-78
2020/12/27 10:11:51;;;;;;;2.22;1.30;;;5.00;81.20;;;;;;4956846;28;20487;-79
2020/12/27 10:14:17;;;;;;;2.30;1.45;;;4.90;81.20;;;;;;4988589;28;20085;-75
2020/12/27 10:16:43;;;;;;;2.85;1.13;;;4.90;81.30;;;;;;4976905;28;20617;-76
2020/12/27 10:19:09;;;;;;;1.88;0.93;;;5.00;80.80;;;;;;4977662;28;20023;-75
2020/12/27 10:21:35;;;;;;;4.47;1.40;;;4.90;81.40;;;;;;4989162;28;20150;-76
2020/12/27 10:24:00;;;;;;;1.80;1.27;;;4.80;81.60;;;;;;4979041;28;20030;-76
2020/12/27 10:26:26;;;;;;;3.10;1.20;;;4.80;81.10;;;;;;4997911;28;20026;-75
2020/12/27 10:28:52;;;;;;;2.42;1.65;;;4.90;80.50;;;;;;4971017;28;20039;-75
2020/12/27 10:31:17;;;;;;;2.10;1.10;;;4.90;80.60;;;;;;4991108;28;20038;-73
2020/12/27 10:33:43;;;;;;;1.40;0.90;;;5.00;80.20;;;;;;4995346;28;20070;-74
2020/12/27 10:36:09;;;;;;;2.67;1.10;;;4.90;80.10;;;;;;4963120;28;20510;-72
2020/12/27 10:38:38;;;;;;;1.83;1.00;;;5.00;80.10;;;;;;4976322;28;20026;-73
2020/12/27 10:41:06;;;;;;;4.30;2.08;;;5.00;79.60;;;;;;4982226;28;20520;-73
2020/12/27 10:43:32;;;;;;;2.45;1.27;;;5.00;79.70;;;;;;4980416;28;20951;-74
2020/12/27 10:46:03;;;;;;;1.40;1.02;;;5.00;79.90;;;;;;4996797;28;20035;-74
2020/12/27 10:48:30;;;;;;;4.88;1.00;;;5.10;79.90;;;;;;4994649;28;20149;-73
2020/12/27 10:50:57;;;;;;;3.10;1.10;;;5.10;80.10;;;;;;4974853;28;20105;-74
2020/12/27 10:53:22;;;;;;;2.53;1.02;;;5.10;79.60;;;;;;4977208;28;20631;-73
2020/12/27 10:55:49;;;;;;;3.03;1.63;;;5.20;79.50;;;;;;4978973;28;20104;-73
2020/12/27 10:58:15;;;;;;;2.00;1.40;;;5.10;79.20;;;;;;4982422;28;20049;-73
2020/12/27 11:00:41;;;;;;;1.42;0.80;;;5.30;78.90;;;;;;4994926;28;20494;-73
2020/12/27 11:03:07;;;;;;;1.52;0.80;;;5.20;78.50;;;;;;4977306;28;20041;-74
2020/12/27 11:05:32;;;;;;;2.85;1.25;;;5.20;78.90;;;;;;4964256;28;20109;-74
2020/12/27 11:07:58;;;;;;;1.48;1.00;;;5.30;81.70;;;;;;4985067;28;20073;-76
2020/12/27 11:10:24;;;;;;;2.40;0.93;;;5.30;78.90;;;;;;4968884;28;20390;-74
2020/12/27 11:12:49;;;;;;;1.55;1.05;;;5.30;78.40;;;;;;4980509;28;20574;-73
2020/12/27 11:15:16;;;;;;;1.92;1.20;;;5.40;77.70;;;;;;4966686;28;20034;-74
2020/12/27 11:17:42;;;;;;;2.80;1.35;;;5.40;77.70;;;;;;4975002;28;20030;-75
2020/12/27 11:20:13;;;;;;;2.13;1.02;;;5.40;77.20;;;;;;4974539;28;20038;-75
2020/12/27 11:22:42;;;;;;;1.55;1.00;;;5.40;77.50;;;;;;4959181;28;20038;-74
2020/12/27 11:25:08;;;;;;;2.60;1.10;;;5.40;77.90;;;;;;4981818;28;20042;-75
2020/12/27 11:27:34;;;;;;;3.80;1.30;;;5.40;78.10;;;;;;4986537;28;20036;-73
2020/12/27 11:30:00;;;;;;;6.28;2.55;;;5.40;77.80;;;;;;4976146;28;20033;-74
2020/12/27 11:32:27;;;;;;;4.45;2.40;;;5.40;77.70;;;;;;4973395;28;20569;-75
2020/12/27 11:34:53;;;;;;;3.70;2.40;;;5.40;77.70;;;;;;4973747;28;20471;-75
2020/12/27 11:37:19;;;;;;;5.15;2.25;;;5.30;78.10;;;;;;4956427;28;20146;-74
2020/12/27 11:39:45;;;;;;;5.43;1.90;;;5.40;77.80;;;;;;4971187;28;20027;-75
2020/12/27 11:42:10;;;;;;;2.67;1.75;;;5.50;77.70;;;;;;4972834;28;20033;-75
2020/12/27 11:44:36;;;;;;;3.40;1.88;;;5.40;77.90;;;;;;4992464;28;20478;-76
2020/12/27 11:47:06;;;;;;;5.75;1.67;;;5.40;78.00;;;;;;4960050;28;20023;-76
2020/12/27 11:49:32;;;;;;;5.10;2.75;;;5.40;78.00;;;;;;4974788;28;20026;-76
2020/12/27 11:51:58;;;;;;;4.20;2.00;;;5.50;77.80;;;;;;4974758;28;20053;-76
2020/12/27 11:54:24;;;;;;;2.25;1.60;;;5.50;77.30;;;;;;4975037;28;20034;-77
2020/12/27 11:56:55;;;;;;;3.17;1.67;;;5.50;78.10;;;;;;4980321;28;20026;-74
2020/12/27 11:59:21;;;;;;;4.57;1.60;;;5.50;78.10;;;;;;4996654;28;20084;-74
2020/12/27 12:01:47;;;;;;;1.98;1.15;;;5.60;78.40;;;;;;4972242;28;20033;-74
2020/12/27 12:04:13;;;;;;;2.65;1.10;;;5.60;77.70;;;;;;4973077;28;20432;-74
2020/12/27 12:06:38;;;;;;;2.13;1.40;;;5.60;78.50;;;;;;4994111;28;20034;-74
2020/12/27 12:09:04;;;;;;;2.25;1.20;;;5.60;77.30;;;;;;4957905;28;20084;-74
2020/12/27 12:11:34;;;;;;;3.00;1.35;;;5.60;77.70;;;;;;4958813;28;20026;-74
2020/12/27 12:13:59;;;;;;;3.50;1.70;;;5.60;78.00;;;;;;4957496;28;20026;-75
2020/12/27 12:16:25;;;;;;;2.15;1.13;;;5.60;78.40;;;;;;4977131;28;20092;-74
2020/12/27 12:18:51;;;;;;;2.55;1.27;;;5.50;78.40;;;;;;4993458;28;20034;-75
2020/12/27 12:21:17;;;;;;;1.95;1.08;;;5.50;79.10;;;;;;4981449;28;20478;-75
2020/12/27 12:23:42;;;;;;;2.33;1.08;;;5.50;78.90;;;;;;4969275;28;20085;-74
2020/12/27 12:26:09;;;;;;;1.58;1.08;;;5.60;79.00;;;;;;4957940;28;20041;-76
2020/12/27 12:28:35;;;;;;;1.77;1.05;;;5.50;79.10;;;;;;4959614;28;20034;-75
2020/12/27 12:31:01;;;;;;;2.13;0.82;;;5.60;79.20;;;;;;4956985;28;20057;-76
2020/12/27 12:33:30;;;;;;;1.95;1.10;;;5.60;79.90;;;;;;4997868;28;20027;-77
2020/12/27 12:35:55;;;;;;;3.20;1.40;;;5.50;80.20;;;;;;4973593;28;20042;-77
2020/12/27 12:38:21;;;;;;;57.35;22.25;;;5.50;81.60;;;;;;4959006;28;20050;-78
2020/12/27 12:40:46;;;;;;;138.43;57.22;;;5.50;81.40;;;;;;4994529;28;20049;-77
2020/12/27 12:43:12;;;;;;;16.30;6.72;;;5.50;81.70;;;;;;4977006;28;20050;-77
2020/12/27 12:45:38;;;;;;;15.30;7.18;;;5.50;82.20;;;;;;4996497;28;20027;-76
2020/12/27 12:48:04;;;;;;;2.30;1.38;;;5.50;82.60;;;;;;4988203;28;20489;-78
2020/12/27 12:50:29;;;;;;;2.63;1.40;;;5.50;83.60;;;;;;4974587;28;20022;-77
2020/12/27 12:52:57;;;;;;;1.35;1.00;;;5.40;83.70;;;;;;4959653;28;20019;-75
2020/12/27 12:55:23;;;;;;;3.55;1.30;;;5.40;84.20;;;;;;4975772;28;20515;-76
2020/12/27 12:57:49;;;;;;;2.55;1.35;;;5.30;85.00;;;;;;4958040;28;20030;-77
2020/12/27 13:00:14;;;;;;;2.55;1.17;;;5.20;85.40;;;;;;4970725;28;20477;-76
2020/12/27 13:02:41;;;;;;;2.25;1.20;;;5.20;86.20;;;;;;4991368;28;20026;-76